Time;durP1;ratioP1;P1;durP2;ratioP2;P2;SDS_P1;SDS_P2;PMS_P1;PMS_P2;Temp;Humidity;BMP_temperature;BMP_pressure;BME280_temperature;BME280_humidity;BME280_pressure;Samples;Min_cycle;Max_cycle;Signal;HPM_P1;HPM_P2
2022/03/27 00:00:38;;;;;;;0.50;0.50;;;9.60;71.60;;;;;;5114652;28;20050;-68
2022/03/27 00:03:05;;;;;;;0.40;0.40;;;9.50;71.70;;;;;;5095553;28;20378;-67
2022/03/27 00:05:31;;;;;;;0.57;0.40;;;9.30;71.70;;;;;;5095474;28;20497;-68
2022/03/27 00:07:57;;;;;;;0.52;0.43;;;9.30;71.80;;;;;;5114352;28;20054;-68
2022/03/27 00:10:23;;;;;;;0.40;0.40;;;9.30;71.90;;;;;;5114565;28;20039;-68
2022/03/27 00:12:48;;;;;;;0.30;0.30;;;9.30;72.00;;;;;;5114263;28;20051;-68
2022/03/27 00:15:14;;;;;;;0.30;0.30;;;9.30;72.10;;;;;;5096112;28;20035;-68
2022/03/27 00:17:40;;;;;;;0.70;0.52;;;9.20;72.00;;;;;;5114292;28;20043;-68
2022/03/27 00:20:08;;;;;;;0.93;0.68;;;9.30;72.20;;;;;;5114207;28;20047;-68
2022/03/27 00:22:37;;;;;;;0.40;0.40;;;9.30;72.20;;;;;;5114238;28;20036;-68
2022/03/27 00:25:05;;;;;;;0.35;0.35;;;9.30;72.20;;;;;;5114056;28;20048;-68
2022/03/27 00:27:31;;;;;;;0.45;0.45;;;9.30;72.20;;;;;;5114490;28;20047;-68
2022/03/27 00:29:57;;;;;;;0.65;0.50;;;9.30;72.20;;;;;;5113945;28;20407;-68
2022/03/27 00:32:23;;;;;;;0.47;0.47;;;9.30;72.20;;;;;;5113794;28;20556;-68
2022/03/27 00:34:49;;;;;;;0.68;0.50;;;9.30;72.20;;;;;;5114354;28;20119;-68
2022/03/27 00:37:16;;;;;;;0.40;0.40;;;9.30;72.20;;;;;;5096296;28;20035;-68
2022/03/27 00:39:42;;;;;;;0.80;0.50;;;9.30;72.20;;;;;;5113867;28;20089;-68
2022/03/27 00:42:08;;;;;;;0.95;0.57;;;9.30;72.20;;;;;;5114144;28;20479;-68
2022/03/27 00:44:34;;;;;;;0.95;0.82;;;9.30;72.30;;;;;;5114037;28;20040;-68
2022/03/27 00:47:01;;;;;;;0.60;0.57;;;9.30;72.30;;;;;;5113729;28;20044;-68
2022/03/27 00:49:28;;;;;;;0.60;0.50;;;9.30;72.40;;;;;;5114111;28;20123;-68
2022/03/27 00:51:54;;;;;;;1.83;0.70;;;9.30;72.40;;;;;;5095902;28;20100;-68
2022/03/27 00:54:21;;;;;;;0.65;0.57;;;9.30;72.50;;;;;;5113638;28;20035;-68
2022/03/27 00:56:47;;;;;;;0.90;0.80;;;9.30;72.50;;;;;;5095418;28;20047;-68
2022/03/27 00:59:14;;;;;;;0.70;0.70;;;9.30;72.50;;;;;;5114178;28;20044;-68
2022/03/27 01:01:40;;;;;;;0.88;0.70;;;9.30;73.20;;;;;;5113533;28;20473;-68
2022/03/27 01:04:07;;;;;;;0.85;0.73;;;9.30;72.60;;;;;;5095497;28;20035;-68
2022/03/27 01:06:41;;;;;;;0.60;0.60;;;9.30;72.70;;;;;;5113474;28;20047;-68
2022/03/27 01:11:48;;;;;;;5.03;0.90;;;9.40;72.80;;;;;;5113253;28;20132;-68
2022/03/27 01:14:21;;;;;;;0.82;0.60;;;9.30;72.80;;;;;;5095956;28;20122;-68
2022/03/27 01:16:57;;;;;;;1.20;0.60;;;9.30;72.80;;;;;;5095809;28;20039;-68
2022/03/27 01:19:23;;;;;;;1.00;0.75;;;9.20;72.80;;;;;;5113359;28;20477;-68
2022/03/27 01:21:49;;;;;;;0.77;0.60;;;9.30;72.90;;;;;;5113242;28;20043;-68
2022/03/27 01:24:17;;;;;;;0.90;0.70;;;9.30;73.00;;;;;;5113712;28;20035;-68
2022/03/27 01:26:44;;;;;;;1.60;0.73;;;9.20;73.00;;;;;;5113388;28;20052;-68
2022/03/27 01:29:10;;;;;;;1.00;0.90;;;9.20;73.10;;;;;;5113670;28;20047;-68
2022/03/27 01:31:36;;;;;;;0.60;0.60;;;9.30;73.80;;;;;;5078003;28;20044;-68
2022/03/27 01:34:04;;;;;;;1.58;0.80;;;9.30;73.20;;;;;;5112903;28;20508;-68
2022/03/27 01:36:36;;;;;;;1.00;0.80;;;9.20;73.30;;;;;;5113427;28;20038;-68
2022/03/27 01:39:08;;;;;;;1.15;0.90;;;9.20;73.30;;;;;;5095269;28;20035;-68
2022/03/27 01:41:35;;;;;;;1.70;0.93;;;9.30;73.40;;;;;;5113017;28;20039;-68
2022/03/27 01:44:01;;;;;;;1.23;0.90;;;9.20;73.40;;;;;;5112781;28;20442;-68
2022/03/27 01:46:31;;;;;;;0.88;0.82;;;9.20;73.50;;;;;;5112848;28;20035;-68
2022/03/27 01:49:00;;;;;;;1.00;0.70;;;9.20;73.60;;;;;;5113015;28;20093;-68
2022/03/27 01:51:27;;;;;;;0.98;0.70;;;9.20;73.60;;;;;;5112892;28;20035;-68
2022/03/27 01:53:54;;;;;;;1.38;0.90;;;9.20;73.60;;;;;;5112353;28;20550;-68
2022/03/27 01:56:20;;;;;;;1.50;0.90;;;9.20;73.60;;;;;;5094578;28;20063;-68
2022/03/27 01:58:46;;;;;;;1.38;0.90;;;9.20;73.70;;;;;;5112467;28;20501;-68
2022/03/27 02:01:12;;;;;;;0.88;0.70;;;9.30;73.70;;;;;;5112423;28;20443;-68
2022/03/27 02:03:37;;;;;;;1.52;0.95;;;9.20;74.30;;;;;;5112605;28;20071;-68
2022/03/27 02:06:05;;;;;;;1.25;0.90;;;9.20;73.80;;;;;;5112462;28;20043;-67
2022/03/27 02:08:33;;;;;;;1.05;0.95;;;9.20;73.80;;;;;;5093919;28;20566;-68
2022/03/27 02:10:59;;;;;;;1.00;0.82;;;9.20;73.90;;;;;;5094515;28;20043;-68
2022/03/27 02:13:25;;;;;;;1.05;0.95;;;9.20;73.90;;;;;;5112253;28;20126;-67
2022/03/27 02:15:53;;;;;;;1.10;0.85;;;9.20;73.90;;;;;;5094099;28;20036;-68
2022/03/27 02:18:19;;;;;;;1.25;0.90;;;9.20;74.00;;;;;;5112807;28;20077;-67
2022/03/27 02:20:45;;;;;;;1.38;0.90;;;9.20;74.10;;;;;;5093385;28;20405;-68
2022/03/27 02:23:12;;;;;;;1.48;1.00;;;9.20;74.10;;;;;;5112472;28;20041;-67
2022/03/27 02:25:38;;;;;;;1.33;0.95;;;9.20;74.10;;;;;;5108118;28;20044;-67
2022/03/27 02:28:04;;;;;;;1.92;1.25;;;9.20;74.10;;;;;;5112159;28;20044;-68
2022/03/27 02:30:30;;;;;;;0.90;0.70;;;9.20;74.20;;;;;;5112426;28;20044;-67
2022/03/27 02:32:56;;;;;;;1.42;0.95;;;9.20;74.20;;;;;;5112302;28;20051;-67
2022/03/27 02:35:22;;;;;;;1.13;0.82;;;9.20;74.20;;;;;;5112169;28;20040;-68
2022/03/27 02:37:48;;;;;;;1.38;0.90;;;9.10;74.30;;;;;;5112620;28;20035;-67
2022/03/27 02:40:14;;;;;;;1.88;1.13;;;9.10;74.40;;;;;;5112623;28;20569;-67
2022/03/27 02:42:41;;;;;;;1.55;1.00;;;9.00;74.50;;;;;;5112417;28;20039;-67
2022/03/27 02:45:07;;;;;;;1.60;0.88;;;9.00;74.50;;;;;;5093846;28;20040;-68
2022/03/27 02:47:33;;;;;;;1.73;0.90;;;9.00;74.60;;;;;;5093742;28;20082;-67
2022/03/27 02:49:59;;;;;;;1.13;0.80;;;9.10;74.80;;;;;;5112414;28;20120;-67
2022/03/27 02:52:25;;;;;;;1.23;0.90;;;9.00;74.80;;;;;;5112310;28;20036;-68
2022/03/27 02:54:51;;;;;;;2.20;1.00;;;9.00;74.80;;;;;;5092984;28;20082;-67
2022/03/27 02:57:16;;;;;;;1.23;0.90;;;8.90;74.90;;;;;;5112528;28;20050;-67
2022/03/27 02:59:42;;;;;;;1.50;1.20;;;8.90;75.00;;;;;;5091996;28;20123;-67
2022/03/27 03:02:08;;;;;;;1.58;0.88;;;8.90;75.00;;;;;;5111543;28;20055;-67
2022/03/27 03:04:35;;;;;;;1.92;1.10;;;8.90;75.10;;;;;;5112419;28;20082;-68
2022/03/27 03:07:01;;;;;;;1.13;0.80;;;8.90;75.10;;;;;;5114465;28;20047;-68
2022/03/27 03:09:27;;;;;;;1.15;0.90;;;8.90;75.10;;;;;;5115345;28;20036;-68
2022/03/27 03:11:53;;;;;;;1.20;0.90;;;8.90;75.00;;;;;;5097488;28;20378;-67
2022/03/27 03:14:18;;;;;;;1.70;1.10;;;8.90;75.00;;;;;;5115408;28;20462;-67
2022/03/27 03:16:46;;;;;;;1.42;0.90;;;8.90;75.00;;;;;;5096921;28;20392;-68
2022/03/27 03:19:13;;;;;;;1.58;1.10;;;8.90;75.10;;;;;;5096784;28;20063;-68
2022/03/27 03:21:40;;;;;;;1.40;0.90;;;8.80;75.10;;;;;;5115202;28;20051;-67
2022/03/27 03:24:07;;;;;;;1.10;0.85;;;8.80;75.20;;;;;;5115129;28;20040;-68
2022/03/27 03:26:33;;;;;;;1.58;1.00;;;8.80;75.20;;;;;;5097068;28;20055;-68
2022/03/27 03:28:59;;;;;;;1.60;0.93;;;8.80;75.20;;;;;;5115148;28;20066;-67
2022/03/27 03:31:25;;;;;;;1.27;0.88;;;8.70;75.20;;;;;;5115244;28;20035;-67
2022/03/27 03:33:51;;;;;;;1.40;1.00;;;8.80;75.30;;;;;;5114803;28;20481;-68
2022/03/27 03:36:17;;;;;;;2.00;1.08;;;8.70;75.30;;;;;;5114855;28;20036;-67
2022/03/27 03:38:43;;;;;;;1.15;0.80;;;8.70;75.50;;;;;;5114932;28;20035;-67
2022/03/27 03:41:09;;;;;;;2.03;1.10;;;8.60;75.50;;;;;;5115211;28;20039;-68
2022/03/27 03:43:36;;;;;;;1.67;0.90;;;8.60;75.60;;;;;;5115274;28;20054;-67
2022/03/27 03:46:03;;;;;;;2.35;1.13;;;8.60;75.70;;;;;;5114778;28;20135;-67
2022/03/27 03:48:29;;;;;;;1.23;0.80;;;8.50;75.60;;;;;;5114687;28;20050;-67
2022/03/27 03:50:55;;;;;;;1.95;1.10;;;8.50;75.70;;;;;;5114455;28;20047;-68
2022/03/27 03:53:22;;;;;;;2.22;1.20;;;8.50;75.70;;;;;;5096086;28;20040;-67
2022/03/27 03:55:48;;;;;;;1.60;1.00;;;8.50;75.80;;;;;;5094496;28;20044;-68
2022/03/27 03:58:14;;;;;;;1.88;1.05;;;8.50;75.70;;;;;;5114811;28;20035;-68
2022/03/27 04:00:41;;;;;;;1.90;1.05;;;8.40;75.60;;;;;;5095303;28;20401;-68
2022/03/27 04:03:07;;;;;;;2.40;1.23;;;8.50;75.80;;;;;;5114631;28;20047;-68
2022/03/27 04:05:34;;;;;;;2.58;1.30;;;8.50;75.80;;;;;;5114600;28;20036;-68
2022/03/27 04:07:59;;;;;;;2.22;1.25;;;8.40;75.70;;;;;;5114592;28;20389;-69
2022/03/27 04:10:25;;;;;;;1.77;1.15;;;8.40;76.50;;;;;;5115182;28;20039;-69
2022/03/27 04:12:51;;;;;;;1.95;1.20;;;8.30;75.90;;;;;;5114902;28;20039;-69
2022/03/27 04:15:18;;;;;;;2.22;1.05;;;8.30;76.00;;;;;;5114533;28;20032;-69
2022/03/27 04:17:44;;;;;;;2.50;1.30;;;8.20;76.00;;;;;;5113825;28;20035;-69
2022/03/27 04:20:12;;;;;;;2.35;1.27;;;8.20;76.00;;;;;;5114341;28;20027;-69
2022/03/27 04:22:40;;;;;;;3.08;1.38;;;8.30;76.10;;;;;;5115005;28;20402;-69
2022/03/27 04:25:07;;;;;;;1.85;0.98;;;8.20;76.00;;;;;;5111337;28;20043;-68
2022/03/27 04:27:32;;;;;;;1.92;1.10;;;8.30;76.10;;;;;;5114625;28;20393;-68
2022/03/27 04:29:58;;;;;;;2.15;1.10;;;8.20;76.00;;;;;;5114645;28;20042;-69
2022/03/27 04:32:24;;;;;;;3.25;1.30;;;8.30;76.10;;;;;;5114605;28;20528;-68
2022/03/27 04:34:50;;;;;;;2.72;1.27;;;8.20;76.00;;;;;;5114656;28;20473;-68
2022/03/27 04:37:16;;;;;;;1.73;0.98;;;8.20;76.00;;;;;;5114206;28;20043;-68
2022/03/27 04:39:42;;;;;;;2.13;1.15;;;8.20;76.00;;;;;;5114457;28;20036;-69
2022/03/27 04:42:10;;;;;;;2.60;1.20;;;8.30;76.10;;;;;;5114312;28;20036;-69
2022/03/27 04:44:36;;;;;;;1.25;0.80;;;8.20;76.10;;;;;;5096189;28;20042;-68
2022/03/27 04:47:02;;;;;;;2.22;1.10;;;8.20;76.10;;;;;;5114441;28;20040;-68
2022/03/27 04:49:27;;;;;;;2.03;1.15;;;8.10;76.10;;;;;;5113748;28;20031;-68
2022/03/27 04:51:53;;;;;;;2.03;1.10;;;8.10;76.20;;;;;;5113949;28;20069;-68
2022/03/27 04:54:19;;;;;;;3.30;1.40;;;8.10;76.20;;;;;;5114607;28;20031;-68
2022/03/27 04:56:45;;;;;;;1.70;1.05;;;8.00;76.30;;;;;;5113801;28;20043;-69
2022/03/27 04:59:11;;;;;;;2.80;1.25;;;8.00;76.40;;;;;;5114597;28;20070;-69
2022/03/27 05:01:36;;;;;;;2.03;1.00;;;7.90;76.40;;;;;;5114455;28;20037;-69
2022/03/27 05:04:03;;;;;;;3.38;1.42;;;7.90;76.40;;;;;;5113966;28;20039;-69
2022/03/27 05:06:29;;;;;;;2.83;1.30;;;7.90;76.40;;;;;;5113566;28;20071;-69
2022/03/27 05:08:59;;;;;;;2.33;1.27;;;7.80;76.40;;;;;;5113834;28;20097;-69
2022/03/27 05:11:28;;;;;;;1.85;1.00;;;7.80;76.50;;;;;;5113580;28;20093;-69
2022/03/27 05:13:54;;;;;;;2.42;1.20;;;7.70;76.60;;;;;;5095904;28;20138;-68
2022/03/27 05:16:20;;;;;;;1.98;1.08;;;7.70;76.60;;;;;;5113547;28;20071;-69
2022/03/27 05:18:46;;;;;;;2.28;1.10;;;7.70;76.70;;;;;;5113144;28;20043;-69
2022/03/27 05:21:12;;;;;;;2.45;1.35;;;7.70;76.70;;;;;;5113603;28;20038;-69
2022/03/27 05:23:37;;;;;;;2.05;1.20;;;7.60;76.70;;;;;;5113962;28;20040;-69
2022/03/27 05:26:03;;;;;;;1.45;0.90;;;7.60;76.70;;;;;;5113760;28;20127;-69
2022/03/27 05:28:30;;;;;;;2.05;1.10;;;7.60;76.70;;;;;;5113570;28;20042;-69
2022/03/27 05:30:56;;;;;;;2.03;1.20;;;7.50;76.80;;;;;;5112371;28;20051;-69
2022/03/27 05:33:22;;;;;;;2.15;1.15;;;7.40;76.80;;;;;;5095352;28;20074;-68
2022/03/27 05:35:49;;;;;;;2.25;1.20;;;7.50;76.90;;;;;;5113111;28;20114;-69
2022/03/27 05:38:15;;;;;;;2.80;1.30;;;7.30;76.80;;;;;;5113504;28;20438;-68
2022/03/27 05:40:41;;;;;;;2.67;1.33;;;7.20;77.00;;;;;;5113130;28;20046;-68
2022/03/27 05:43:07;;;;;;;3.35;1.50;;;7.20;77.10;;;;;;5113530;28;20978;-68
2022/03/27 05:45:35;;;;;;;2.55;1.20;;;7.10;77.20;;;;;;5113192;28;20046;-68
2022/03/27 05:48:01;;;;;;;2.97;1.50;;;7.00;77.30;;;;;;5113487;28;20039;-68
2022/03/27 05:50:26;;;;;;;2.03;1.13;;;7.00;77.40;;;;;;5113230;28;20042;-68
2022/03/27 05:52:53;;;;;;;1.88;1.17;;;7.00;77.40;;;;;;5113625;28;20032;-69
2022/03/27 05:55:20;;;;;;;1.70;1.10;;;7.00;77.40;;;;;;5112949;28;20114;-68
2022/03/27 05:57:46;;;;;;;1.98;1.00;;;6.90;77.30;;;;;;5078023;28;20373;-68
2022/03/27 06:00:16;;;;;;;2.78;1.30;;;7.00;77.30;;;;;;5112872;28;20078;-69
2022/03/27 06:02:43;;;;;;;2.13;1.25;;;6.90;77.20;;;;;;5113086;28;20130;-69
2022/03/27 06:05:09;;;;;;;1.85;1.00;;;6.90;77.20;;;;;;5094702;28;20043;-69
2022/03/27 06:07:44;;;;;;;2.10;1.08;;;6.90;77.70;;;;;;5113230;28;20043;-68
2022/03/27 06:10:11;;;;;;;2.30;1.08;;;6.90;77.10;;;;;;5112887;28;20105;-69
2022/03/27 06:12:37;;;;;;;2.30;0.95;;;6.90;77.00;;;;;;5113176;28;20044;-68
2022/03/27 06:15:03;;;;;;;1.30;0.85;;;6.90;76.90;;;;;;5094380;28;20497;-68
2022/03/27 06:17:29;;;;;;;2.00;1.00;;;7.00;76.90;;;;;;5113031;28;20031;-69
2022/03/27 06:19:56;;;;;;;2.08;1.00;;;7.00;76.80;;;;;;5094340;28;20050;-69
2022/03/27 06:22:22;;;;;;;1.23;0.80;;;7.00;76.80;;;;;;5112357;28;20097;-69
2022/03/27 06:24:47;;;;;;;0.93;0.80;;;7.10;77.30;;;;;;5112583;28;20398;-69
2022/03/27 06:27:13;;;;;;;1.65;1.00;;;7.10;76.60;;;;;;5113017;28;20038;-69
2022/03/27 06:29:39;;;;;;;1.42;0.90;;;7.10;76.50;;;;;;5112455;28;20048;-68
2022/03/27 06:32:05;;;;;;;1.58;0.85;;;7.10;76.40;;;;;;5112990;28;20043;-68
2022/03/27 06:34:31;;;;;;;2.72;1.10;;;7.10;76.40;;;;;;5112759;28;20040;-68
2022/03/27 06:36:57;;;;;;;1.45;0.90;;;7.10;76.50;;;;;;5112583;28;20366;-68
2022/03/27 06:39:23;;;;;;;1.80;0.90;;;7.10;76.40;;;;;;5112994;28;20032;-68
2022/03/27 06:41:48;;;;;;;1.17;0.88;;;7.20;76.40;;;;;;5115006;28;20540;-69
2022/03/27 06:44:14;;;;;;;1.98;0.90;;;7.20;76.30;;;;;;5116462;28;20090;-69
2022/03/27 06:46:40;;;;;;;1.65;0.90;;;7.30;76.30;;;;;;5115935;28;20488;-69
2022/03/27 06:49:05;;;;;;;1.50;0.77;;;7.40;76.10;;;;;;5116009;28;20534;-69
2022/03/27 06:51:31;;;;;;;1.08;0.77;;;7.40;75.90;;;;;;5116065;28;20073;-69
2022/03/27 06:53:57;;;;;;;1.75;0.98;;;7.40;75.80;;;;;;5116152;28;20036;-70
2022/03/27 06:56:23;;;;;;;2.88;1.00;;;7.40;75.80;;;;;;5115766;28;20035;-70
2022/03/27 06:58:49;;;;;;;2.03;1.25;;;7.40;75.70;;;;;;5095543;28;20362;-68
2022/03/27 07:03:55;;;;;;;3.08;1.33;;;7.40;75.90;;;;;;5115481;28;20071;-67
2022/03/27 07:06:20;;;;;;;1.63;0.95;;;7.40;75.80;;;;;;5115707;28;20050;-70
2022/03/27 07:08:47;;;;;;;1.73;0.90;;;7.40;75.80;;;;;;5115616;28;20554;-69
2022/03/27 07:11:13;;;;;;;2.28;1.10;;;7.50;75.90;;;;;;5115580;28;20040;-67
2022/03/27 07:13:39;;;;;;;1.83;0.88;;;7.50;75.80;;;;;;5115361;28;20062;-68
2022/03/27 07:16:04;;;;;;;2.13;1.17;;;7.70;75.70;;;;;;5115936;28;20039;-69
2022/03/27 07:18:30;;;;;;;1.52;0.90;;;7.70;75.50;;;;;;5115351;28;20040;-68
2022/03/27 07:20:57;;;;;;;3.28;1.40;;;7.70;75.30;;;;;;5095713;28;20032;-67
2022/03/27 07:23:23;;;;;;;2.20;1.13;;;7.70;75.20;;;;;;5115875;28;20067;-68
2022/03/27 07:25:53;;;;;;;1.25;0.80;;;7.80;75.30;;;;;;5115450;28;20516;-67
2022/03/27 07:28:19;;;;;;;2.22;1.10;;;7.80;75.20;;;;;;5097101;28;20508;-68
2022/03/27 07:30:46;;;;;;;2.40;1.05;;;7.90;75.20;;;;;;5097166;28;20050;-69
2022/03/27 07:33:12;;;;;;;2.20;1.00;;;7.90;75.00;;;;;;5115161;28;20044;-69
2022/03/27 07:35:38;;;;;;;1.67;1.00;;;8.10;75.00;;;;;;5115215;28;20495;-69
2022/03/27 07:38:05;;;;;;;2.00;1.15;;;8.10;74.90;;;;;;5115222;28;20051;-68
2022/03/27 07:40:32;;;;;;;2.60;1.02;;;8.10;74.70;;;;;;5115058;28;20036;-70
2022/03/27 07:42:58;;;;;;;2.25;1.15;;;8.20;74.60;;;;;;5115163;28;20084;-69
2022/03/27 07:45:26;;;;;;;2.55;1.30;;;8.30;74.50;;;;;;5097545;28;20043;-68
2022/03/27 07:47:53;;;;;;;2.53;1.30;;;8.30;74.40;;;;;;5115571;28;20043;-68
2022/03/27 07:50:21;;;;;;;2.30;1.20;;;8.30;74.30;;;;;;5115283;28;20040;-70
2022/03/27 07:52:47;;;;;;;2.50;1.20;;;8.40;75.00;;;;;;5114419;28;20043;-68
2022/03/27 07:55:15;;;;;;;2.10;1.20;;;8.40;74.30;;;;;;5114919;28;20039;-68
2022/03/27 07:57:43;;;;;;;2.38;1.10;;;8.50;74.30;;;;;;5114825;28;20184;-68
2022/03/27 08:00:10;;;;;;;2.75;1.33;;;8.60;74.20;;;;;;5115248;28;20122;-68
2022/03/27 08:02:37;;;;;;;2.13;1.13;;;8.70;74.00;;;;;;5114887;28;20047;-70
2022/03/27 08:05:04;;;;;;;2.30;1.20;;;8.80;73.80;;;;;;5115221;28;20128;-70
2022/03/27 08:07:31;;;;;;;2.42;1.38;;;8.90;73.60;;;;;;5115406;28;20039;-70
2022/03/27 08:09:58;;;;;;;1.95;1.20;;;8.90;73.60;;;;;;5115107;28;20043;-70
2022/03/27 08:12:24;;;;;;;2.10;1.00;;;9.00;73.50;;;;;;5114508;28;20039;-70
2022/03/27 08:14:50;;;;;;;2.03;0.95;;;9.10;73.40;;;;;;5114987;28;20042;-70
2022/03/27 08:17:17;;;;;;;2.45;1.10;;;9.20;73.20;;;;;;5114654;28;20040;-70
2022/03/27 08:19:44;;;;;;;1.95;1.15;;;9.30;73.00;;;;;;5114578;28;20042;-70
2022/03/27 08:22:11;;;;;;;2.22;1.27;;;9.40;72.90;;;;;;5095763;28;20031;-70
2022/03/27 08:24:37;;;;;;;1.92;1.02;;;9.50;72.90;;;;;;5114861;28;20047;-70
2022/03/27 08:27:04;;;;;;;2.88;1.17;;;9.60;72.70;;;;;;5114391;28;20036;-70
2022/03/27 08:29:34;;;;;;;2.00;1.10;;;9.70;72.60;;;;;;5114564;28;20051;-70
2022/03/27 08:32:02;;;;;;;1.97;1.30;;;9.90;72.60;;;;;;5114452;28;20520;-70
2022/03/27 08:34:31;;;;;;;1.65;0.90;;;9.90;72.50;;;;;;5114946;28;20284;-70
2022/03/27 08:36:59;;;;;;;2.53;1.27;;;10.10;72.40;;;;;;5114320;28;20031;-70
2022/03/27 08:39:25;;;;;;;2.35;1.15;;;10.20;72.30;;;;;;5114365;28;20488;-70
2022/03/27 08:41:54;;;;;;;1.35;1.08;;;10.30;72.10;;;;;;5096060;28;20043;-70
2022/03/27 08:44:22;;;;;;;1.92;1.10;;;10.50;72.10;;;;;;5114201;28;20035;-69
2022/03/27 08:46:50;;;;;;;2.00;1.17;;;10.50;72.00;;;;;;5114146;28;20044;-70
2022/03/27 08:49:47;;;;;;;2.47;1.23;;;10.50;72.00;;;;;;5096117;28;20100;-68
2022/03/27 08:52:39;;;;;;;2.35;1.20;;;10.70;71.90;;;;;;5083130;28;20043;-70
2022/03/27 08:55:07;;;;;;;2.55;1.38;;;10.70;71.80;;;;;;5099924;28;20075;-70
2022/03/27 08:57:57;;;;;;;2.75;1.17;;;10.80;72.00;;;;;;5095934;28;20100;-69
2022/03/27 09:00:28;;;;;;;2.13;1.20;;;10.90;71.90;;;;;;5113913;28;20455;-69
2022/03/27 09:02:54;;;;;;;2.97;1.50;;;11.10;71.70;;;;;;5113944;28;20040;-70
2022/03/27 09:05:22;;;;;;;1.98;1.20;;;11.20;71.50;;;;;;5113634;28;20088;-70
2022/03/27 09:07:48;;;;;;;1.88;1.20;;;11.30;71.30;;;;;;5114381;28;20040;-69
2022/03/27 09:10:15;;;;;;;2.10;1.20;;;11.30;71.20;;;;;;5113468;28;20075;-69
2022/03/27 09:12:44;;;;;;;2.45;1.38;;;11.30;71.30;;;;;;5094546;28;20417;-69
2022/03/27 09:15:11;;;;;;;2.03;1.25;;;11.40;71.30;;;;;;5113581;28;20096;-70
2022/03/27 09:18:07;;;;;;;1.92;1.23;;;11.40;71.30;;;;;;5114287;28;20134;-69
2022/03/27 09:20:37;;;;;;;2.17;1.20;;;11.50;71.30;;;;;;5114000;28;20130;-69
2022/03/27 09:23:20;;;;;;;2.35;1.02;;;11.60;71.20;;;;;;5093095;28;20040;-69
2022/03/27 09:25:59;;;;;;;2.58;1.45;;;11.60;71.00;;;;;;5113391;28;20054;-70
2022/03/27 09:28:35;;;;;;;2.30;1.48;;;11.70;71.00;;;;;;5113264;28;20038;-69
2022/03/27 09:31:06;;;;;;;2.53;1.38;;;11.80;70.80;;;;;;5113324;28;20044;-69
2022/03/27 09:33:46;;;;;;;2.80;1.45;;;11.80;70.70;;;;;;5112999;28;20118;-69
2022/03/27 09:36:22;;;;;;;2.20;1.30;;;11.90;70.70;;;;;;5113169;28;20039;-69
2022/03/27 09:39:03;;;;;;;2.38;1.40;;;12.00;70.60;;;;;;5113549;28;20031;-69
2022/03/27 09:41:44;;;;;;;2.75;1.50;;;12.00;70.40;;;;;;5113171;28;20043;-69
2022/03/27 09:44:17;;;;;;;2.20;1.33;;;12.00;70.50;;;;;;5113450;28;20108;-69
2022/03/27 09:46:54;;;;;;;2.03;1.20;;;12.10;70.50;;;;;;5093775;28;20048;-69
2022/03/27 09:49:25;;;;;;;2.10;1.13;;;12.10;70.30;;;;;;5113486;28;20123;-69
2022/03/27 09:51:54;;;;;;;;;;;12.20;70.30;;;;;;5114001;28;20036;-69
2022/03/27 09:54:19;;;;;;;1.88;1.20;;;12.20;70.20;;;;;;5113471;28;19915;-70
2022/03/27 09:56:45;;;;;;;1.50;0.90;;;12.30;70.10;;;;;;5112763;28;20100;-69
2022/03/27 09:59:25;;;;;;;1.52;0.95;;;12.30;70.00;;;;;;5113218;28;20048;-70
2022/03/27 10:01:51;;;;;;;2.22;1.10;;;12.40;69.90;;;;;;5078390;28;20134;-70
2022/03/27 10:04:16;;;;;;;1.83;1.15;;;12.40;69.70;;;;;;5113080;28;20535;-69
2022/03/27 10:06:43;;;;;;;1.52;0.98;;;12.50;69.70;;;;;;5078406;28;20523;-69
2022/03/27 10:09:13;;;;;;;2.15;1.30;;;12.40;69.40;;;;;;5112549;28;20126;-70
2022/03/27 10:11:42;;;;;;;1.90;1.20;;;12.50;69.30;;;;;;5113337;28;20044;-69
2022/03/27 10:14:09;;;;;;;2.53;1.23;;;12.50;69.30;;;;;;5112882;28;20043;-70
2022/03/27 10:16:36;;;;;;;1.58;1.08;;;12.50;69.30;;;;;;5112662;28;20039;-69
2022/03/27 10:19:06;;;;;;;2.45;1.35;;;12.40;69.10;;;;;;5112691;28;20040;-69
2022/03/27 10:21:32;;;;;;;2.17;1.40;;;12.50;69.20;;;;;;5112761;28;20048;-69
2022/03/27 10:24:16;;;;;;;2.60;1.50;;;12.40;69.00;;;;;;5112604;28;20172;-69
2022/03/27 10:26:44;;;;;;;3.17;1.15;;;12.50;68.90;;;;;;5112794;28;20127;-69
2022/03/27 10:29:11;;;;;;;2.45;1.30;;;12.40;68.90;;;;;;5112940;28;20262;-69
2022/03/27 10:31:38;;;;;;;2.35;1.30;;;12.50;68.80;;;;;;5112595;28;20063;-70
2022/03/27 10:34:06;;;;;;;2.33;1.25;;;12.60;68.60;;;;;;5112644;28;20042;-68
2022/03/27 10:36:57;;;;;;;1.33;1.17;;;12.60;68.30;;;;;;5112716;28;20067;-70
2022/03/27 10:39:25;;;;;;;2.03;1.20;;;12.70;68.00;;;;;;5094203;28;20051;-69
2022/03/27 10:42:04;;;;;;;1.92;1.30;;;12.80;67.80;;;;;;5093368;28;20044;-69
2022/03/27 10:44:56;;;;;;;2.40;1.25;;;12.90;67.60;;;;;;5112745;28;20115;-70
2022/03/27 10:47:24;;;;;;;2.20;1.50;;;13.00;67.10;;;;;;5110485;28;20039;-69
2022/03/27 10:50:23;;;;;;;2.13;1.30;;;13.10;66.90;;;;;;5093851;28;20435;-70
2022/03/27 10:53:07;;;;;;;2.55;1.40;;;13.10;66.60;;;;;;5099900;28;20119;-70
2022/03/27 10:55:38;;;;;;;2.30;1.30;;;13.20;66.50;;;;;;5092679;28;20230;-70
2022/03/27 10:58:25;;;;;;;3.58;1.38;;;13.20;66.10;;;;;;5094796;28;20075;-70
2022/03/27 11:00:51;;;;;;;2.72;1.20;;;13.30;66.00;;;;;;5109724;28;20481;-70
2022/03/27 11:03:47;;;;;;;1.83;1.20;;;13.40;65.80;;;;;;5112052;28;20088;-70
2022/03/27 11:06:28;;;;;;;2.60;1.27;;;13.40;65.50;;;;;;5111336;28;20071;-69
2022/03/27 11:08:55;;;;;;;;;;;13.60;65.30;;;;;;5112672;28;20134;-70
2022/03/27 11:11:56;;;;;;;1.50;1.00;;;13.70;65.10;;;;;;5111885;28;20365;-70
2022/03/27 11:14:44;;;;;;;2.35;1.10;;;13.80;64.70;;;;;;5099182;28;20430;-69
2022/03/27 11:17:12;;;;;;;1.45;1.02;;;13.90;64.50;;;;;;5111653;28;20108;-70
2022/03/27 11:19:41;;;;;;;1.63;1.00;;;14.00;64.30;;;;;;5111861;28;20104;-70
2022/03/27 11:22:27;;;;;;;1.63;1.02;;;14.10;64.00;;;;;;5111890;28;20036;-70
2022/03/27 11:25:33;;;;;;;1.48;1.00;;;14.10;63.80;;;;;;5111542;28;20065;-70
2022/03/27 11:28:11;;;;;;;1.92;1.17;;;14.20;63.60;;;;;;5113299;28;20499;-70
2022/03/27 11:30:40;;;;;;;1.88;1.15;;;14.30;63.60;;;;;;5115650;28;20047;-70
2022/03/27 11:33:23;;;;;;;1.98;1.30;;;14.30;63.50;;;;;;5115721;28;20040;-70
2022/03/27 11:36:19;;;;;;;2.05;1.38;;;14.40;63.20;;;;;;5115528;28;20155;-69
2022/03/27 11:39:02;;;;;;;1.63;1.30;;;14.50;63.10;;;;;;5099980;28;20046;-69
2022/03/27 11:41:42;;;;;;;2.40;1.27;;;14.60;62.80;;;;;;5115050;28;20027;-70
2022/03/27 11:44:22;;;;;;;2.88;1.35;;;14.70;62.70;;;;;;5095915;28;20124;-70
2022/03/27 11:46:50;;;;;;;1.50;1.02;;;14.70;62.40;;;;;;5115605;28;20035;-69
2022/03/27 11:49:17;;;;;;;2.95;1.23;;;14.80;62.90;;;;;;5115061;28;20055;-69
2022/03/27 11:51:43;;;;;;;1.52;1.10;;;14.90;62.10;;;;;;5114808;28;20127;-69
2022/03/27 11:54:19;;;;;;;1.83;1.13;;;14.90;62.00;;;;;;5114843;28;20044;-69
2022/03/27 11:56:53;;;;;;;1.88;1.00;;;15.00;61.70;;;;;;5114791;28;20043;-69
2022/03/27 11:59:19;;;;;;;1.75;1.30;;;15.10;61.60;;;;;;5115096;28;20481;-69
2022/03/27 12:01:51;;;;;;;1.30;1.00;;;15.20;61.30;;;;;;5114995;28;20097;-69
2022/03/27 12:04:18;;;;;;;2.38;1.50;;;15.30;61.00;;;;;;5096675;28;20130;-69
2022/03/27 12:06:44;;;;;;;2.88;1.42;;;15.40;60.90;;;;;;5115184;28;20088;-69
2022/03/27 12:09:25;;;;;;;3.25;1.20;;;15.40;60.60;;;;;;5115385;28;20116;-69
2022/03/27 12:12:04;;;;;;;2.35;1.05;;;15.50;60.50;;;;;;5114721;28;20071;-69
2022/03/27 12:14:30;;;;;;;2.08;1.40;;;15.70;60.30;;;;;;5095450;28;20040;-69
2022/03/27 12:16:56;;;;;;;1.80;1.08;;;15.80;60.10;;;;;;5096693;28;20038;-69
2022/03/27 12:19:22;;;;;;;2.30;1.00;;;15.90;59.80;;;;;;5114406;28;20040;-69
2022/03/27 12:21:48;;;;;;;2.30;1.30;;;16.10;59.60;;;;;;5114458;28;20052;-69
2022/03/27 12:24:16;;;;;;;3.08;1.30;;;16.20;59.40;;;;;;5114875;28;20040;-69
2022/03/27 12:32:05;;;;;;;1.88;1.10;;;16.40;58.90;;;;;;5114135;28;20134;-71
2022/03/27 12:34:31;;;;;;;2.13;1.15;;;16.40;58.80;;;;;;5094480;28;20092;-69
2022/03/27 12:37:12;;;;;;;1.55;0.98;;;16.30;58.80;;;;;;5114248;28;20040;-68
2022/03/27 12:39:41;;;;;;;1.10;0.90;;;16.30;59.10;;;;;;5113580;28;20039;-69
2022/03/27 12:42:27;;;;;;;2.55;1.10;;;16.30;59.10;;;;;;5095664;28;20393;-71
2022/03/27 12:44:52;;;;;;;2.05;0.90;;;16.40;58.90;;;;;;5097700;28;20117;-70
2022/03/27 12:47:28;;;;;;;1.17;0.70;;;16.50;58.80;;;;;;5062284;28;20052;-68
2022/03/27 12:49:54;;;;;;;1.77;1.00;;;16.50;58.70;;;;;;5114613;28;20046;-70
2022/03/27 12:52:20;;;;;;;1.70;1.05;;;16.60;58.70;;;;;;5113771;28;20043;-70
2022/03/27 12:55:01;;;;;;;0.88;0.80;;;16.60;58.60;;;;;;5113787;28;20130;-70
2022/03/27 12:57:56;;;;;;;1.20;0.80;;;16.60;58.50;;;;;;5113920;28;20492;-69
2022/03/27 13:00:28;;;;;;;1.88;0.95;;;16.70;58.50;;;;;;5113967;28;20142;-69
2022/03/27 13:03:12;;;;;;;1.10;0.77;;;16.80;58.40;;;;;;5113859;28;20043;-68
2022/03/27 13:05:40;;;;;;;1.58;0.93;;;16.90;58.10;;;;;;5113594;28;20063;-67
2022/03/27 13:08:06;;;;;;;2.55;0.88;;;17.00;58.10;;;;;;5113522;28;20043;-67
2022/03/27 13:10:33;;;;;;;2.03;1.10;;;16.90;58.00;;;;;;5114283;28;20070;-69
2022/03/27 13:13:05;;;;;;;1.88;0.98;;;17.00;57.90;;;;;;5095531;28;20055;-69